Time;durP1;ratioP1;P1;durP2;ratioP2;P2;SDS_P1;SDS_P2;PMS_P1;PMS_P2;Temp;Humidity;BMP_temperature;BMP_pressure;BME280_temperature;BME280_humidity;BME280_pressure;Samples;Min_cycle;Max_cycle;Signal;HPM_P1;HPM_P2
2023/07/30 00:01:27;;;;;;;10.83;9.80;;;17.80;99.90;;;;;;5094143;28;20883;-69
2023/07/30 00:03:55;;;;;;;10.60;9.80;;;17.80;99.90;;;;;;5093804;28;20464;-69
2023/07/30 00:06:23;;;;;;;10.73;9.90;;;17.80;99.90;;;;;;5094069;28;20994;-69
2023/07/30 00:08:51;;;;;;;10.40;9.50;;;17.80;99.90;;;;;;5094054;28;20874;-69
2023/07/30 00:11:19;;;;;;;10.67;9.87;;;17.70;99.90;;;;;;5093745;28;20501;-69
2023/07/30 00:13:48;;;;;;;11.10;10.00;;;17.70;99.90;;;;;;5093762;28;20433;-69
2023/07/30 00:16:17;;;;;;;10.23;9.47;;;17.70;99.90;;;;;;5093749;28;20485;-69
2023/07/30 00:18:45;;;;;;;10.73;9.80;;;17.70;99.90;;;;;;5093973;28;20941;-69
2023/07/30 00:21:13;;;;;;;11.20;10.30;;;17.60;99.90;;;;;;5093538;28;20481;-69
2023/07/30 00:23:41;;;;;;;10.80;9.80;;;17.60;99.90;;;;;;5093885;28;20988;-69
2023/07/30 00:26:10;;;;;;;10.67;9.77;;;17.60;99.90;;;;;;5093783;28;20429;-69
2023/07/30 00:28:38;;;;;;;11.53;10.43;;;17.60;99.90;;;;;;5093493;28;21005;-69
2023/07/30 00:31:06;;;;;;;10.23;9.43;;;17.50;99.90;;;;;;5092188;28;20505;-69
2023/07/30 00:33:35;;;;;;;9.60;8.77;;;17.50;99.90;;;;;;5092212;28;20992;-69
2023/07/30 00:36:04;;;;;;;10.90;9.90;;;17.50;99.90;;;;;;5093585;28;20443;-69
2023/07/30 00:38:32;;;;;;;9.77;8.40;;;17.50;99.90;;;;;;5093780;28;20481;-69
2023/07/30 00:41:00;;;;;;;10.20;9.20;;;17.50;99.90;;;;;;5092144;28;20485;-69
2023/07/30 00:43:30;;;;;;;8.70;7.90;;;17.50;99.90;;;;;;5092817;28;20450;-69
2023/07/30 00:45:58;;;;;;;8.73;7.90;;;17.50;99.90;;;;;;5092102;28;21006;-69
2023/07/30 00:48:26;;;;;;;10.03;7.63;;;17.40;99.90;;;;;;5092109;28;20434;-69
2023/07/30 00:50:56;;;;;;;8.80;7.60;;;17.40;99.90;;;;;;5093394;28;20519;-69
2023/07/30 00:53:26;;;;;;;8.40;7.50;;;17.40;99.90;;;;;;5093580;28;20454;-69
2023/07/30 00:55:55;;;;;;;8.20;7.50;;;17.40;99.90;;;;;;5093412;28;20796;-69
2023/07/30 00:58:24;;;;;;;9.17;7.43;;;17.40;99.90;;;;;;5091952;28;20449;-69
2023/07/30 01:00:54;;;;;;;9.70;8.70;;;17.40;99.90;;;;;;5095199;28;20406;-69
2023/07/30 01:03:22;;;;;;;9.03;8.13;;;17.40;99.90;;;;;;5095994;28;20472;-69
2023/07/30 01:05:50;;;;;;;8.20;7.60;;;17.40;99.90;;;;;;5095954;28;20941;-69
2023/07/30 01:08:20;;;;;;;8.73;7.93;;;17.40;99.90;;;;;;5095991;28;20781;-69
2023/07/30 01:10:49;;;;;;;8.40;7.57;;;17.40;99.90;;;;;;5097144;28;20470;-69
2023/07/30 01:13:18;;;;;;;10.07;8.00;;;17.30;99.90;;;;;;5095980;28;20847;-69
2023/07/30 01:15:47;;;;;;;10.50;7.30;;;17.30;99.90;;;;;;5097063;28;20436;-69
2023/07/30 01:18:15;;;;;;;9.57;8.80;;;17.30;99.90;;;;;;5095794;28;20914;-69
2023/07/30 01:20:44;;;;;;;8.43;7.63;;;17.30;99.90;;;;;;5095697;28;20446;-69
2023/07/30 01:23:13;;;;;;;8.90;8.10;;;17.30;99.90;;;;;;5095519;28;20494;-69
2023/07/30 01:25:45;;;;;;;7.50;6.80;;;17.20;99.90;;;;;;5095616;28;20493;-69
2023/07/30 01:28:18;;;;;;;8.47;7.73;;;17.20;99.90;;;;;;5095670;28;20876;-69
2023/07/30 01:30:48;;;;;;;8.53;7.73;;;17.20;99.90;;;;;;5097125;28;20412;-69
2023/07/30 01:33:16;;;;;;;8.90;8.10;;;17.20;99.90;;;;;;5095451;28;20468;-69
2023/07/30 01:35:45;;;;;;;10.40;8.40;;;17.20;99.90;;;;;;5096697;28;20439;-69
2023/07/30 01:38:15;;;;;;;9.80;8.17;;;17.20;99.90;;;;;;5096714;28;20898;-69
2023/07/30 01:40:43;;;;;;;9.43;8.27;;;17.10;99.90;;;;;;5095451;28;20888;-69
2023/07/30 01:43:12;;;;;;;10.40;8.77;;;17.10;99.90;;;;;;5095157;28;20459;-69
2023/07/30 01:45:40;;;;;;;9.30;8.50;;;17.10;99.90;;;;;;5096784;28;20458;-69
2023/07/30 01:48:09;;;;;;;9.73;8.93;;;17.00;99.90;;;;;;5096441;28;20790;-69
2023/07/30 01:50:37;;;;;;;9.90;9.03;;;17.00;99.90;;;;;;5096727;28;20476;-69
2023/07/30 01:53:05;;;;;;;8.67;7.87;;;17.00;99.90;;;;;;5096380;28;20840;-69
2023/07/30 01:55:34;;;;;;;9.80;9.00;;;17.00;99.90;;;;;;5095054;28;20453;-69
2023/07/30 01:58:03;;;;;;;10.03;9.10;;;16.90;99.90;;;;;;5094954;28;20415;-69
2023/07/30 02:00:31;;;;;;;10.30;9.33;;;16.90;99.90;;;;;;5094926;28;20954;-69
2023/07/30 02:03:04;;;;;;;9.67;8.80;;;16.90;99.90;;;;;;5096059;28;20437;-69
2023/07/30 02:05:32;;;;;;;10.70;9.27;;;16.80;99.90;;;;;;5096301;28;20957;-69
2023/07/30 02:08:00;;;;;;;10.27;9.37;;;16.80;99.90;;;;;;5094909;28;20448;-69
2023/07/30 02:10:29;;;;;;;10.93;9.27;;;16.80;99.90;;;;;;5094804;28;20444;-69
2023/07/30 02:12:58;;;;;;;10.17;9.27;;;16.80;99.90;;;;;;5095395;28;20544;-69
2023/07/30 02:15:26;;;;;;;10.23;9.17;;;16.70;99.90;;;;;;5094743;28;20419;-69
2023/07/30 02:17:54;;;;;;;10.63;9.50;;;16.70;99.90;;;;;;5094621;28;20477;-69
2023/07/30 02:20:22;;;;;;;10.23;9.23;;;16.70;99.90;;;;;;5094632;28;20479;-69
2023/07/30 02:22:50;;;;;;;10.20;9.00;;;16.70;99.90;;;;;;5095903;28;20868;-69
2023/07/30 02:25:19;;;;;;;10.43;9.43;;;16.70;99.90;;;;;;5095648;28;20611;-69
2023/07/30 02:27:48;;;;;;;9.60;8.70;;;16.70;99.90;;;;;;5094423;28;20825;-69
2023/07/30 02:30:18;;;;;;;10.47;9.43;;;16.60;99.90;;;;;;5094383;28;20531;-69
2023/07/30 02:32:46;;;;;;;10.93;9.80;;;16.60;99.90;;;;;;5094281;28;20466;-69
2023/07/30 02:35:15;;;;;;;12.30;10.40;;;16.60;99.90;;;;;;5094306;28;20450;-69
2023/07/30 02:37:43;;;;;;;10.20;9.10;;;16.60;99.90;;;;;;5095524;28;20523;-69
2023/07/30 02:40:12;;;;;;;10.60;9.47;;;16.60;99.90;;;;;;5095894;28;20468;-69
2023/07/30 02:42:40;;;;;;;10.50;9.60;;;16.60;99.90;;;;;;5094079;28;20854;-69
2023/07/30 02:45:09;;;;;;;10.57;9.57;;;16.60;99.90;;;;;;5094036;28;20460;-69
2023/07/30 02:47:38;;;;;;;12.03;10.80;;;16.60;99.90;;;;;;5095322;28;20479;-69
2023/07/30 02:50:07;;;;;;;10.83;9.57;;;16.60;99.90;;;;;;5094009;28;20502;-69
2023/07/30 02:52:35;;;;;;;12.80;9.70;;;16.50;99.90;;;;;;5093884;28;20431;-69
2023/07/30 02:55:04;;;;;;;10.87;8.30;;;16.50;99.90;;;;;;5093948;28;20464;-69
2023/07/30 02:57:32;;;;;;;10.87;9.77;;;16.50;99.90;;;;;;5094039;28;20422;-69
2023/07/30 03:00:00;;;;;;;10.47;9.50;;;16.50;99.90;;;;;;5093994;28;20459;-69
2023/07/30 03:02:28;;;;;;;11.30;10.20;;;16.50;99.90;;;;;;5095354;28;20431;-69
2023/07/30 03:04:58;;;;;;;10.73;9.73;;;16.50;99.90;;;;;;5093820;28;20469;-69
2023/07/30 03:07:26;;;;;;;10.83;9.83;;;16.50;99.90;;;;;;5095165;28;20411;-69
2023/07/30 03:09:55;;;;;;;12.60;9.70;;;16.50;99.90;;;;;;5093627;28;20857;-69
2023/07/30 03:12:23;;;;;;;10.67;9.43;;;16.40;99.90;;;;;;5094726;28;20427;-69
2023/07/30 03:14:51;;;;;;;11.20;8.93;;;16.40;99.90;;;;;;5093761;28;20484;-69
2023/07/30 03:17:19;;;;;;;10.20;8.80;;;16.40;99.90;;;;;;5095062;28;20443;-69
2023/07/30 03:19:47;;;;;;;12.60;9.67;;;16.40;99.90;;;;;;5094984;28;20436;-69
2023/07/30 03:22:17;;;;;;;11.70;10.47;;;16.40;99.90;;;;;;5094586;28;20541;-69
2023/07/30 03:24:47;;;;;;;12.73;9.83;;;16.40;99.90;;;;;;5093692;28;20513;-69
2023/07/30 03:27:15;;;;;;;10.53;9.13;;;16.30;99.90;;;;;;5094781;28;20436;-69
2023/07/30 03:29:44;;;;;;;12.27;8.87;;;16.30;99.90;;;;;;5094524;28;20475;-69
2023/07/30 03:32:12;;;;;;;11.30;9.23;;;16.30;99.90;;;;;;5094410;28;20452;-69
2023/07/30 03:34:40;;;;;;;8.97;8.17;;;16.30;99.90;;;;;;5094951;28;20436;-69
2023/07/30 03:37:08;;;;;;;17.27;9.83;;;16.30;99.90;;;;;;5094390;28;20830;-69
2023/07/30 03:39:38;;;;;;;12.67;9.73;;;16.30;99.90;;;;;;5092987;28;20924;-69
2023/07/30 03:42:06;;;;;;;11.67;9.03;;;16.20;99.90;;;;;;5092917;28;20548;-69
2023/07/30 03:44:36;;;;;;;15.00;8.67;;;16.20;99.90;;;;;;5092879;28;20537;-69
2023/07/30 03:47:04;;;;;;;11.60;8.63;;;16.20;99.90;;;;;;5094190;28;20501;-69
2023/07/30 03:49:32;;;;;;;11.77;8.20;;;16.20;99.90;;;;;;5094148;28;20411;-69
2023/07/30 03:52:00;;;;;;;10.50;7.70;;;16.20;99.90;;;;;;5094061;28;20947;-69
2023/07/30 03:54:29;;;;;;;12.20;8.00;;;16.20;99.90;;;;;;5092807;28;20415;-69
2023/07/30 03:56:58;;;;;;;12.30;7.80;;;16.20;99.90;;;;;;5092826;28;20463;-69
2023/07/30 03:59:28;;;;;;;9.53;7.33;;;16.20;99.90;;;;;;5094016;28;20437;-69
2023/07/30 04:01:56;;;;;;;10.13;7.00;;;16.10;99.90;;;;;;5093836;28;20452;-69
2023/07/30 04:04:25;;;;;;;10.50;6.87;;;16.10;99.90;;;;;;5094073;28;20530;-69
2023/07/30 04:06:53;;;;;;;9.87;7.00;;;16.10;99.90;;;;;;5092595;28;20480;-69
2023/07/30 04:09:22;;;;;;;9.10;6.60;;;16.10;99.90;;;;;;5092524;28;20464;-69
2023/07/30 04:11:52;;;;;;;12.83;7.07;;;16.10;99.90;;;;;;5092423;28;20460;-69
2023/07/30 04:14:21;;;;;;;12.47;6.80;;;16.10;99.90;;;;;;5093805;28;20411;-69
2023/07/30 04:16:49;;;;;;;11.50;7.00;;;16.10;99.90;;;;;;5093696;28;20497;-69
2023/07/30 04:19:17;;;;;;;10.57;6.10;;;16.10;99.90;;;;;;5092667;28;20460;-69
2023/07/30 04:21:45;;;;;;;8.40;6.80;;;16.10;99.90;;;;;;5093526;28;20933;-69
2023/07/30 04:24:13;;;;;;;11.00;5.67;;;16.10;99.90;;;;;;5093603;28;20448;-69
2023/07/30 04:26:42;;;;;;;11.87;6.13;;;16.00;99.90;;;;;;5092267;28;20468;-69
2023/07/30 04:29:10;;;;;;;13.07;6.40;;;16.00;99.90;;;;;;5093629;28;20428;-69
2023/07/30 04:31:40;;;;;;;7.77;5.90;;;16.10;99.90;;;;;;5092185;28;20521;-69
2023/07/30 04:34:08;;;;;;;9.73;6.50;;;16.10;99.90;;;;;;5093902;28;20467;-69
2023/07/30 04:36:36;;;;;;;10.50;6.10;;;16.10;99.90;;;;;;5092255;28;20444;-69
2023/07/30 04:39:04;;;;;;;9.90;5.80;;;16.10;99.90;;;;;;5092148;28;20453;-69
2023/07/30 04:41:34;;;;;;;7.87;5.47;;;16.10;99.90;;;;;;5092071;28;20443;-69
2023/07/30 04:44:05;;;;;;;8.33;6.10;;;16.10;99.90;;;;;;5093699;28;20531;-69
2023/07/30 04:46:33;;;;;;;7.33;5.43;;;16.10;99.90;;;;;;5093289;28;20468;-69
2023/07/30 04:49:04;;;;;;;10.87;5.93;;;16.10;99.90;;;;;;5092130;28;20429;-69
2023/07/30 04:51:33;;;;;;;10.70;5.67;;;16.10;99.90;;;;;;5092083;28;20443;-69
2023/07/30 04:54:01;;;;;;;9.17;5.67;;;16.10;99.90;;;;;;5092075;28;20415;-69
2023/07/30 04:56:29;;;;;;;7.97;5.50;;;16.10;99.90;;;;;;5092053;28;20415;-69
2023/07/30 04:58:57;;;;;;;8.50;5.13;;;16.10;99.90;;;;;;5092088;28;20423;-69
2023/07/30 05:01:25;;;;;;;7.63;5.73;;;16.10;99.90;;;;;;5091908;28;20874;-70
2023/07/30 05:03:54;;;;;;;8.47;5.70;;;16.10;99.90;;;;;;5093182;28;20439;-69
2023/07/30 05:06:24;;;;;;;9.00;5.50;;;16.10;99.90;;;;;;5093174;28;21064;-69
2023/07/30 05:08:52;;;;;;;9.40;5.23;;;16.10;99.90;;;;;;5093148;28;20431;-69
2023/07/30 05:11:20;;;;;;;9.23;5.17;;;16.10;99.90;;;;;;5093093;28;20534;-70
2023/07/30 05:13:49;;;;;;;10.83;5.57;;;16.10;99.90;;;;;;5093391;28;20840;-70
2023/07/30 05:16:17;;;;;;;6.67;5.10;;;16.10;99.90;;;;;;5093151;28;20432;-70
2023/07/30 05:18:45;;;;;;;10.07;5.63;;;16.10;99.90;;;;;;5093176;28;20419;-70
2023/07/30 05:21:13;;;;;;;8.77;5.70;;;16.10;99.90;;;;;;5093232;28;20451;-70
2023/07/30 05:23:43;;;;;;;10.93;5.20;;;16.20;99.90;;;;;;5091770;28;20466;-70
2023/07/30 05:26:11;;;;;;;9.37;5.37;;;16.20;99.90;;;;;;5093009;28;20449;-70
2023/07/30 05:28:39;;;;;;;9.50;5.40;;;16.20;99.90;;;;;;5092328;28;20418;-70
2023/07/30 05:31:07;;;;;;;10.13;5.03;;;16.20;99.90;;;;;;5093481;28;20438;-70
2023/07/30 05:33:35;;;;;;;8.03;5.10;;;16.20;99.90;;;;;;5092959;28;20411;-70
2023/07/30 05:36:03;;;;;;;9.30;6.07;;;16.30;99.90;;;;;;5093336;28;20917;-71
2023/07/30 05:38:31;;;;;;;13.27;5.70;;;16.30;99.90;;;;;;5093509;28;20448;-70
2023/07/30 05:41:01;;;;;;;9.70;5.90;;;16.30;99.90;;;;;;5093504;28;20440;-70
2023/07/30 05:43:29;;;;;;;9.47;5.60;;;16.30;99.90;;;;;;5093344;28;20407;-70
2023/07/30 05:45:57;;;;;;;13.07;6.10;;;16.30;99.90;;;;;;5093160;28;20612;-70
2023/07/30 05:48:25;;;;;;;9.47;6.30;;;16.30;99.90;;;;;;5097078;28;20422;-70
2023/07/30 05:50:53;;;;;;;11.37;6.40;;;16.30;99.90;;;;;;5096865;28;20423;-70
2023/07/30 05:53:21;;;;;;;9.70;5.90;;;16.40;99.90;;;;;;5096333;28;20550;-70
2023/07/30 05:55:49;;;;;;;9.60;5.90;;;16.40;99.90;;;;;;5096635;28;20535;-70
2023/07/30 05:58:19;;;;;;;9.73;6.70;;;16.50;99.90;;;;;;5096934;28;20507;-70
2023/07/30 06:00:47;;;;;;;10.27;5.77;;;16.60;99.90;;;;;;5096578;28;20489;-70
2023/07/30 06:03:15;;;;;;;10.53;6.30;;;16.60;99.90;;;;;;5096158;28;20480;-70
2023/07/30 06:05:44;;;;;;;11.10;6.30;;;16.80;99.90;;;;;;5096063;28;20460;-70
2023/07/30 06:08:12;;;;;;;13.20;6.07;;;16.90;99.90;;;;;;5096156;28;20403;-70
2023/07/30 06:10:41;;;;;;;9.33;5.73;;;17.10;99.90;;;;;;5096619;28;20983;-70
2023/07/30 06:13:09;;;;;;;16.80;7.10;;;17.20;99.90;;;;;;5096235;28;20448;-70
2023/07/30 06:15:38;;;;;;;14.77;6.43;;;17.30;99.90;;;;;;5096090;28;20471;-70
2023/07/30 06:18:07;;;;;;;10.70;6.07;;;17.40;99.90;;;;;;5094698;28;20421;-70
2023/07/30 06:20:35;;;;;;;8.50;6.07;;;17.60;99.90;;;;;;5095932;28;20920;-70
2023/07/30 06:23:04;;;;;;;8.00;5.77;;;17.70;99.90;;;;;;5096077;28;21039;-70
2023/07/30 06:25:32;;;;;;;17.20;7.40;;;17.80;99.90;;;;;;5095756;28;20439;-71
2023/07/30 06:28:00;;;;;;;13.90;6.00;;;17.90;99.90;;;;;;5095806;28;20918;-70
2023/07/30 06:30:28;;;;;;;10.80;6.10;;;18.00;99.90;;;;;;5095738;28;20432;-70
2023/07/30 06:32:57;;;;;;;11.33;6.53;;;18.00;99.90;;;;;;5095608;28;20535;-70
2023/07/30 06:35:26;;;;;;;11.60;6.20;;;18.10;99.90;;;;;;5094397;28;20505;-70
2023/07/30 06:37:54;;;;;;;8.00;6.37;;;18.30;99.90;;;;;;5095486;28;20978;-70
2023/07/30 06:40:23;;;;;;;12.20;5.67;;;18.40;99.90;;;;;;5095452;28;20476;-70
2023/07/30 06:42:51;;;;;;;10.93;6.10;;;18.50;99.90;;;;;;5095291;28;20427;-70
2023/07/30 06:45:19;;;;;;;12.80;6.40;;;18.60;99.90;;;;;;5095649;28;20531;-70
2023/07/30 06:47:48;;;;;;;10.83;6.30;;;18.70;99.90;;;;;;5095325;28;20464;-70
2023/07/30 06:50:17;;;;;;;10.43;6.67;;;18.80;99.90;;;;;;5095290;28;20428;-70
2023/07/30 06:52:45;;;;;;;14.10;6.03;;;18.80;99.90;;;;;;5095118;28;20968;-70
2023/07/30 06:55:13;;;;;;;10.83;6.27;;;18.80;99.90;;;;;;5095743;28;20433;-70
2023/07/30 06:57:41;;;;;;;11.77;5.73;;;18.90;99.90;;;;;;5095512;28;20527;-70
2023/07/30 07:00:11;;;;;;;14.00;6.70;;;18.90;99.90;;;;;;5095573;28;20436;-70
2023/07/30 07:02:39;;;;;;;10.93;6.10;;;18.90;99.90;;;;;;5095148;28;20521;-69
2023/07/30 07:05:07;;;;;;;12.43;6.67;;;19.00;99.90;;;;;;5095372;28;20929;-69
2023/07/30 07:07:36;;;;;;;14.23;8.10;;;19.10;99.90;;;;;;5095225;28;20546;-70
2023/07/30 07:10:05;;;;;;;12.70;6.00;;;19.10;99.90;;;;;;5095021;28;20479;-70
2023/07/30 07:12:33;;;;;;;12.37;6.60;;;19.10;99.90;;;;;;5094949;28;20538;-70
2023/07/30 07:15:01;;;;;;;13.43;6.90;;;19.10;99.90;;;;;;5094949;28;20485;-70
2023/07/30 07:17:30;;;;;;;12.10;6.27;;;19.10;99.90;;;;;;5093657;28;20441;-70
2023/07/30 07:19:58;;;;;;;16.07;6.60;;;19.20;99.90;;;;;;5094889;28;20464;-69
2023/07/30 07:22:26;;;;;;;15.30;6.07;;;19.30;99.90;;;;;;5093332;28;20464;-69
2023/07/30 07:24:56;;;;;;;12.03;5.87;;;19.30;99.90;;;;;;5095027;28;20519;-70
2023/07/30 07:27:24;;;;;;;13.47;6.70;;;19.30;99.90;;;;;;5094521;28;20460;-70
2023/07/30 07:29:52;;;;;;;11.47;5.60;;;19.40;99.90;;;;;;5094916;28;20464;-70
2023/07/30 07:32:20;;;;;;;11.43;5.43;;;19.40;99.90;;;;;;5094548;28;20491;-69
2023/07/30 07:34:49;;;;;;;14.00;6.77;;;19.50;99.90;;;;;;5094480;28;20929;-70
2023/07/30 07:37:18;;;;;;;13.33;5.30;;;19.60;99.90;;;;;;5094787;28;20527;-70
2023/07/30 07:39:47;;;;;;;12.63;5.93;;;19.70;99.90;;;;;;5094540;28;20460;-70
2023/07/30 07:42:16;;;;;;;10.70;5.00;;;19.70;99.90;;;;;;5094360;28;20524;-70
2023/07/30 07:44:45;;;;;;;12.00;6.13;;;19.70;99.90;;;;;;5095241;28;20919;-70
2023/07/30 07:47:14;;;;;;;9.30;5.03;;;19.60;99.90;;;;;;5094349;28;20475;-70
2023/07/30 07:49:42;;;;;;;9.27;4.80;;;19.50;99.90;;;;;;5094200;28;20411;-70
2023/07/30 07:52:10;;;;;;;11.90;5.90;;;19.50;99.90;;;;;;5094187;28;20555;-70
2023/07/30 07:54:39;;;;;;;10.50;6.10;;;19.50;99.90;;;;;;5094143;28;20428;-70
2023/07/30 07:57:07;;;;;;;12.60;5.47;;;19.60;99.90;;;;;;5094343;28;20501;-70
2023/07/30 07:59:36;;;;;;;10.93;5.10;;;19.60;99.90;;;;;;5094351;28;20964;-70
2023/07/30 08:02:05;;;;;;;12.27;5.80;;;19.60;99.90;;;;;;5094194;28;20456;-70
2023/07/30 08:04:33;;;;;;;11.50;6.70;;;19.70;99.90;;;;;;5093973;28;20929;-70
2023/07/30 08:07:03;;;;;;;8.57;6.00;;;19.70;99.90;;;;;;5093878;28;20464;-70
2023/07/30 08:09:31;;;;;;;11.83;6.53;;;19.60;99.90;;;;;;5093526;28;20928;-70
2023/07/30 08:12:00;;;;;;;8.93;6.10;;;19.60;99.90;;;;;;5094023;28;20932;-70
2023/07/30 08:14:28;;;;;;;7.83;5.20;;;19.60;99.90;;;;;;5094172;28;20515;-70
2023/07/30 08:16:58;;;;;;;13.70;6.00;;;19.50;99.90;;;;;;5093901;28;20434;-70
2023/07/30 08:19:27;;;;;;;12.37;6.50;;;19.50;99.90;;;;;;5093850;28;20468;-70
2023/07/30 08:21:56;;;;;;;9.80;7.07;;;19.50;99.90;;;;;;5093767;28;20491;-70
2023/07/30 08:24:24;;;;;;;12.00;6.80;;;19.50;99.90;;;;;;5094301;28;20429;-70
2023/07/30 08:26:52;;;;;;;12.37;7.53;;;19.40;99.90;;;;;;5093629;28;20464;-71
2023/07/30 08:29:20;;;;;;;9.30;6.30;;;19.40;99.90;;;;;;5093736;28;20523;-70
2023/07/30 08:31:48;;;;;;;10.87;7.37;;;19.30;99.90;;;;;;5093537;28;20893;-70
2023/07/30 08:34:19;;;;;;;11.23;7.43;;;19.30;99.90;;;;;;5093981;28;20523;-70
2023/07/30 08:36:47;;;;;;;14.00;7.50;;;19.30;99.90;;;;;;5093916;28;20933;-70
2023/07/30 08:39:15;;;;;;;12.53;8.50;;;19.30;99.90;;;;;;5093705;28;20466;-70
2023/07/30 08:41:43;;;;;;;9.10;7.50;;;19.30;99.90;;;;;;5093462;28;20830;-70
2023/07/30 08:44:11;;;;;;;13.90;7.63;;;19.30;99.90;;;;;;5093777;28;20467;-71
2023/07/30 08:46:39;;;;;;;10.97;7.37;;;19.30;99.90;;;;;;5093606;28;20440;-70
2023/07/30 08:49:07;;;;;;;11.57;8.50;;;19.30;99.90;;;;;;5093393;28;21007;-70
2023/07/30 08:51:38;;;;;;;15.10;8.23;;;19.30;99.90;;;;;;5093592;28;20856;-70
2023/07/30 08:54:08;;;;;;;11.10;8.50;;;19.30;99.90;;;;;;5093911;28;20784;-70
2023/07/30 08:56:36;;;;;;;12.63;8.40;;;19.40;99.90;;;;;;5093321;28;20432;-70
2023/07/30 08:59:06;;;;;;;14.70;8.63;;;19.40;99.90;;;;;;5093317;28;20523;-70
2023/07/30 09:01:38;;;;;;;13.83;8.20;;;19.50;99.90;;;;;;5093218;28;20460;-70
2023/07/30 09:04:08;;;;;;;16.93;8.33;;;19.50;99.90;;;;;;5093504;28;20416;-70
2023/07/30 09:06:38;;;;;;;10.77;7.90;;;19.60;99.90;;;;;;5093356;28;20451;-70
2023/07/30 09:09:09;;;;;;;12.20;8.80;;;19.60;99.90;;;;;;5092260;28;20506;-70
2023/07/30 09:11:37;;;;;;;11.60;8.20;;;19.70;99.90;;;;;;5094066;28;20453;-70
2023/07/30 09:14:07;;;;;;;14.70;7.97;;;19.70;99.90;;;;;;5093661;28;20440;-71
2023/07/30 09:16:35;;;;;;;12.93;7.70;;;19.70;99.90;;;;;;5093857;28;20436;-70
2023/07/30 09:19:03;;;;;;;9.77;8.50;;;19.70;99.90;;;;;;5094180;28;20471;-70
2023/07/30 09:21:32;;;;;;;10.43;8.23;;;19.70;99.90;;;;;;5094269;28;21050;-70
2023/07/30 09:24:06;;;;;;;9.97;7.80;;;19.70;99.90;;;;;;5097721;28;20813;-70
2023/07/30 09:26:44;;;;;;;12.80;7.47;;;19.70;99.90;;;;;;5097977;28;20444;-71
2023/07/30 09:29:12;;;;;;;13.30;9.00;;;19.70;99.90;;;;;;5096343;28;20455;-70
2023/07/30 09:31:48;;;;;;;14.37;7.13;;;19.80;99.90;;;;;;5096185;28;20467;-70
2023/07/30 09:34:18;;;;;;;10.50;8.50;;;19.80;99.90;;;;;;5097569;28;20416;-70
2023/07/30 09:36:46;;;;;;;8.13;7.30;;;19.80;99.90;;;;;;5097310;28;21006;-71
2023/07/30 09:39:22;;;;;;;11.23;7.80;;;19.90;99.90;;;;;;5097350;28;20509;-70
2023/07/30 09:41:51;;;;;;;13.30;7.63;;;19.90;99.90;;;;;;5097289;28;20451;-70
2023/07/30 09:44:21;;;;;;;14.30;8.00;;;19.90;99.90;;;;;;5097521;28;20450;-70
2023/07/30 09:46:50;;;;;;;11.67;6.50;;;19.90;99.90;;;;;;5098063;28;20511;-70
2023/07/30 09:49:19;;;;;;;16.40;8.40;;;20.00;99.90;;;;;;5096989;28;20855;-70
2023/07/30 09:51:48;;;;;;;11.97;6.90;;;20.00;99.90;;;;;;5097040;28;20452;-71
2023/07/30 09:54:16;;;;;;;9.20;6.60;;;20.00;99.90;;;;;;5097816;28;20463;-70
2023/07/30 09:56:46;;;;;;;13.20;7.20;;;20.00;99.90;;;;;;5096737;28;20440;-70
2023/07/30 09:59:14;;;;;;;11.17;6.10;;;20.10;99.90;;;;;;5096978;28;20865;-70
2023/07/30 10:01:45;;;;;;;10.43;6.10;;;20.10;99.90;;;;;;5097008;28;20452;-70
2023/07/30 10:04:13;;;;;;;11.50;6.37;;;20.10;99.90;;;;;;5097170;28;20448;-71
2023/07/30 10:06:46;;;;;;;10.73;5.83;;;20.10;99.90;;;;;;5096846;28;20435;-71
2023/07/30 10:09:18;;;;;;;8.93;5.27;;;20.20;99.90;;;;;;5096982;28;21040;-71
2023/07/30 10:11:50;;;;;;;8.67;5.33;;;20.20;99.90;;;;;;5097281;28;20560;-71
2023/07/30 10:14:24;;;;;;;13.53;6.50;;;20.30;99.90;;;;;;5097054;28;20431;-71
2023/07/30 10:16:54;;;;;;;9.50;5.90;;;20.30;99.90;;;;;;5096906;28;20841;-71
2023/07/30 10:19:24;;;;;;;7.43;4.80;;;20.40;99.90;;;;;;5097046;28;20459;-71
2023/07/30 10:21:52;;;;;;;9.83;4.70;;;20.40;99.90;;;;;;5096478;28;20466;-70
2023/07/30 10:24:20;;;;;;;15.83;5.70;;;20.50;99.90;;;;;;5096811;28;20474;-70
2023/07/30 10:26:50;;;;;;;9.33;5.10;;;20.60;99.90;;;;;;5096797;28;20456;-71
2023/07/30 10:29:20;;;;;;;7.53;4.90;;;20.70;99.90;;;;;;5095646;28;20873;-71
2023/07/30 10:31:53;;;;;;;10.23;4.63;;;20.70;99.90;;;;;;5095659;28;20928;-70
2023/07/30 10:34:21;;;;;;;8.60;5.03;;;20.80;99.90;;;;;;5096026;28;20520;-71
2023/07/30 10:36:51;;;;;;;9.50;5.50;;;20.90;99.90;;;;;;5095754;28;20434;-71
2023/07/30 10:39:21;;;;;;;6.83;4.50;;;20.90;99.90;;;;;;5095497;28;20464;-71
2023/07/30 10:41:52;;;;;;;9.73;5.47;;;21.00;99.90;;;;;;5095721;28;20448;-71
2023/07/30 10:44:25;;;;;;;7.67;5.13;;;21.00;99.90;;;;;;5095559;28;20516;-71
2023/07/30 10:46:54;;;;;;;10.77;5.43;;;21.10;99.90;;;;;;5095758;28;20428;-70
2023/07/30 10:49:22;;;;;;;8.80;5.73;;;21.10;99.90;;;;;;5095331;28;20508;-71
2023/07/30 10:51:53;;;;;;;6.20;4.50;;;21.20;99.90;;;;;;5095646;28;20476;-70
2023/07/30 10:54:21;;;;;;;6.33;4.67;;;21.20;99.90;;;;;;5095605;28;20412;-71
2023/07/30 10:56:52;;;;;;;7.30;4.80;;;21.30;99.90;;;;;;5095413;28;20435;-71
2023/07/30 10:59:20;;;;;;;10.63;5.20;;;21.40;99.90;;;;;;5095520;28;20448;-71
2023/07/30 11:01:48;;;;;;;7.87;5.43;;;21.50;99.90;;;;;;5095197;28;20513;-71
2023/07/30 11:04:18;;;;;;;7.23;4.77;;;21.50;99.90;;;;;;5095285;28;20799;-71
2023/07/30 11:06:48;;;;;;;8.23;4.77;;;21.70;99.90;;;;;;5095631;28;20482;-71
2023/07/30 11:09:21;;;;;;;9.77;4.63;;;21.70;99.90;;;;;;5095603;28;20456;-70
2023/07/30 11:11:51;;;;;;;7.93;5.07;;;21.70;99.90;;;;;;5095004;28;20448;-71
2023/07/30 11:14:21;;;;;;;10.37;4.87;;;21.70;99.90;;;;;;5095194;28;20905;-71
2023/07/30 11:16:50;;;;;;;9.17;4.67;;;21.70;99.90;;;;;;5095101;28;20485;-71
2023/07/30 11:19:19;;;;;;;9.13;5.23;;;21.70;99.90;;;;;;5094817;28;20436;-71
2023/07/30 11:21:48;;;;;;;7.83;4.90;;;21.70;99.90;;;;;;5094743;28;20459;-71
2023/07/30 11:24:19;;;;;;;8.33;4.80;;;21.50;99.90;;;;;;5095408;28;20508;-71
2023/07/30 11:26:59;;;;;;;9.27;5.37;;;21.40;99.90;;;;;;5094658;28;20471;-70
2023/07/30 11:29:28;;;;;;;6.57;4.80;;;21.40;99.90;;;;;;5094711;28;20460;-71
2023/07/30 11:31:58;;;;;;;6.07;4.83;;;21.30;99.90;;;;;;5094471;28;20489;-71
2023/07/30 11:34:27;;;;;;;6.83;4.70;;;21.20;99.90;;;;;;5093283;28;20509;-71
2023/07/30 11:36:57;;;;;;;7.73;5.17;;;21.10;99.90;;;;;;5093623;28;20444;-71
2023/07/30 11:39:25;;;;;;;10.27;5.27;;;21.00;99.90;;;;;;5094283;28;20996;-71
2023/07/30 11:41:53;;;;;;;10.97;5.20;;;21.00;99.90;;;;;;5094336;28;20452;-71
2023/07/30 11:44:33;;;;;;;7.13;5.07;;;20.90;99.90;;;;;;5093647;28;20543;-70
2023/07/30 11:47:03;;;;;;;8.17;5.50;;;20.90;99.90;;;;;;5094604;28;20910;-71
2023/07/30 11:49:31;;;;;;;9.20;6.70;;;20.80;99.90;;;;;;5094261;28;20503;-70
2023/07/30 11:52:07;;;;;;;10.53;4.70;;;20.80;99.90;;;;;;5094339;28;20484;-71
2023/07/30 11:54:35;;;;;;;8.80;5.17;;;20.70;99.90;;;;;;5094039;28;20506;-71
2023/07/30 11:57:04;;;;;;;6.47;5.50;;;20.70;99.90;;;;;;5094497;28;20794;-71
2023/07/30 11:59:33;;;;;;;10.10;5.47;;;20.60;99.90;;;;;;5094526;28;20440;-71
2023/07/30 12:02:02;;;;;;;10.73;6.10;;;20.50;99.90;;;;;;5094038;28;20467;-71
2023/07/30 12:04:31;;;;;;;4.00;2.37;;;20.40;99.90;;;;;;5093939;28;20432;-70
2023/07/30 12:07:02;;;;;;;4.17;2.50;;;20.20;99.90;;;;;;5092610;28;20482;-71
2023/07/30 12:09:37;;;;;;;4.13;2.53;;;19.90;99.90;;;;;;5094111;28;20456;-71
2023/07/30 12:12:07;;;;;;;3.97;2.60;;;19.60;99.90;;;;;;5093915;28;20448;-71
2023/07/30 12:14:55;;;;;;;3.90;2.20;;;19.30;99.90;;;;;;5093660;28;20440;-71
2023/07/30 12:17:23;;;;;;;5.90;2.63;;;18.90;99.90;;;;;;5093677;28;20432;-71
2023/07/30 12:19:51;;;;;;;4.20;2.40;;;18.60;99.90;;;;;;5093719;28;20439;-71
2023/07/30 12:22:19;;;;;;;3.03;2.20;;;18.40;99.90;;;;;;5093608;28;20884;-70
2023/07/30 12:24:47;;;;;;;5.50;2.60;;;18.20;99.90;;;;;;5094001;28;20527;-71
2023/07/30 12:27:15;;;;;;;3.57;2.37;;;18.00;99.90;;;;;;5094003;28;20514;-71
2023/07/30 12:29:45;;;;;;;6.80;2.70;;;17.90;99.90;;;;;;5093804;28;20820;-70
2023/07/30 12:32:13;;;;;;;3.27;2.43;;;17.80;99.90;;;;;;5093618;28;20550;-71
2023/07/30 12:34:41;;;;;;;3.97;2.30;;;17.70;99.90;;;;;;5093466;28;20441;-71
2023/07/30 12:37:09;;;;;;;4.70;2.37;;;17.70;99.90;;;;;;5093927;28;20489;-71
2023/07/30 12:39:37;;;;;;;5.20;2.63;;;17.80;99.90;;;;;;5093469;28;20450;-71
2023/07/30 12:42:06;;;;;;;6.47;2.50;;;17.80;99.90;;;;;;5092264;28;20578;-71
2023/07/30 12:44:34;;;;;;;4.30;3.03;;;17.90;99.90;;;;;;5093446;28;20440;-70
2023/07/30 12:47:04;;;;;;;6.67;3.73;;;18.00;99.90;;;;;;5093476;28;20440;-71
2023/07/30 12:49:32;;;;;;;6.77;4.13;;;18.00;99.90;;;;;;5093254;28;20993;-71